Monday, October 16, 2017, 8:22 PM EDT
Back to Local

KBGM, Binghamton Regional Airport

Location: Johnson City, NY, United States Lat: 42.2
Local Time: 8:22 PM EDT ( 0:22 GMT) Lon: -75.983
Time Zone: US/Eastern Elev: 1637 ft

Show me the last for .
Show Decoded

2017-10-16 19:53 METAR KBGM 162353Z 33009KT 10SM FEW030 BKN039 04/M01 A3019 RMK AO2 SLP236
                 T00391011 10089 20039 53020 =
2017-10-16 19:20 METAR KBGM 162320Z 34009KT 10SM SCT029 OVC039 04/M01 A3018 RMK AO2 T00441006 =
2017-10-16 19:01 METAR KBGM 162301Z 34008KT 10SM BKN029 BKN039 BKN048 04/M01 A3017 RMK AO2
                 T00441006 =
2017-10-16 18:53 METAR KBGM 162253Z 33010KT 10SM SCT029 BKN037 04/M01 A3017 RMK AO2 SLP227
                 T00441006 =
2017-10-16 17:53 METAR KBGM 162153Z 35010KT 10SM FEW029 OVC042 06/00 A3015 RMK AO2 SLP220
                 T00560000 =
2017-10-16 16:53 METAR KBGM 162053Z 33012G20KT 10SM FEW034 OVC048 07/01 A3013 RMK AO2 SLP212
                 T00670006 53011 =
2017-10-16 15:53 METAR KBGM 161953Z 34016G20KT 10SM BKN037 BKN046 07/01 A3011 RMK AO2 SLP205
                 T00720011 =
2017-10-16 14:53 METAR KBGM 161853Z 34008KT 10SM BKN036 OVC045 08/02 A3010 RMK AO2 SLP198
                 T00780022 =
2017-10-16 13:53 METAR KBGM 161753Z 31009KT 10SM FEW020 SCT038 BKN045 06/03 A3010 RMK AO2
                 RAB04E13B29E48 SLP199 P0000 60015 T00610033 10067 20050 50003 =
2017-10-16 13:11 METAR KBGM 161711Z 33012G19KT 10SM -RA SCT023 BKN031 OVC039 06/03 A3010 RMK AO2
                 RAB04 P0000 T00610028 =
2017-10-16 12:53 METAR KBGM 161653Z 33010KT 10SM SCT021 BKN027 OVC042 07/04 A3010 RMK AO2 RAE29
                 SLP199 P0000 T00670039 =
2017-10-16 12:40 METAR KBGM 161640Z 31008KT 10SM FEW008 BKN027 OVC043 06/04 A3011 RMK AO2 RAE29
                 P0000 T00610039 =
2017-10-16 12:00 METAR KBGM 161600Z 32007KT 8SM -RA BKN008 BKN011 OVC017 06/04 A3011 RMK AO2
                 P0000 T00560044 =
2017-10-16 11:53 METAR KBGM 161553Z 32006G16KT 7SM -RA SCT008 BKN011 OVC017 06/04 A3011 RMK AO2
                 RAB23 SLP201 P0000 T00560044 =
2017-10-16 11:19 METAR KBGM 161519Z 32010G19KT 10SM SCT009 BKN015 OVC031 06/04 A3009 RMK AO2
                 T00560044 =
2017-10-16 10:53 METAR KBGM 161453Z 32007G17KT 10SM BKN007 BKN010 OVC020 06/04 A3009 RMK AO2
                 RAB04E46 CIG 003V008 SLP194 P0004 60015 T00560044 51018 =
2017-10-16 10:42 METAR KBGM 161442Z 32010G16KT 5SM -RA BR BKN005 OVC009 05/04 A3009 RMK AO2 RAB04
                 P0004 T00500044 =
2017-10-16 10:18 METAR KBGM 161418Z 33006KT 2 1/2SM RA BR BKN005 BKN014 OVC028 06/04 A3008 RMK
                 AO2 VIS 2V5 RAB04 P0001 T00560044 =
2017-10-16 09:53 METAR KBGM 161353Z 33009KT 10SM SCT007 OVC014 06/04 A3008 RMK AO2 RAE53 SLP191
                 P0002 T00560044 =
2017-10-16 09:44 METAR KBGM 161344Z 33009KT 5SM -RA BR BKN007 OVC014 05/04 A3008 RMK AO2 P0002
                 T00500044 =
2017-10-16 09:35 METAR KBGM 161335Z 34008KT 3SM -RA BR SCT005 OVC012 05/04 A3008 RMK AO2 P0002
                 T00500044 =
2017-10-16 09:28 METAR KBGM 161328Z 34008KT 3SM -RA BR SCT005 BKN009 OVC012 05/04 A3008 RMK AO2
                 P0002 T00500044 =
2017-10-16 09:20 METAR KBGM 161320Z 34009KT 2 1/2SM -RA BR SCT005 BKN010 OVC014 05/04 A3007 RMK
                 AO2 VIS 1 3/4V4 P0001 T00500044 =
2017-10-16 09:04 METAR KBGM 161304Z 34010KT 5SM -RA BR BKN007 OVC012 05/04 A3007 RMK AO2 P0000
                 T00500044 =
2017-10-16 08:53 METAR KBGM 161253Z 35011KT 3SM -RA BR SCT005 OVC011 05/04 A3007 RMK AO2 SLP186
                 P0009 T00500044 =
2017-10-16 08:33 METAR KBGM 161233Z 34008KT 2SM -RA BR BKN005 OVC011 05/04 A3006 RMK AO2 P0008
                 T00500044 =
2017-10-16 07:53 METAR KBGM 161153Z 35006KT 1 1/4SM RA BR OVC003 05/04 A3004 RMK AO2 RAB22 SLP172
                 P0003 60003 70043 T00500044 10100 20050 51019 =
2017-10-16 07:33 METAR KBGM 161133Z 32007KT 2 1/2SM -RA BR OVC004 05/04 A3003 RMK AO2 RAB22 CIG
                 003V008 P0000 T00500044 =
2017-10-16 06:53 METAR KBGM 161053Z 32008KT 10SM BKN009 OVC013 06/04 A3001 RMK AO2 SLP162
                 T00560044 =
2017-10-16 06:37 METAR KBGM 161037Z 31008KT 10SM OVC009 06/04 A3000 RMK AO2 CIG 006V014 T00560044
                 =
2017-10-16 06:18 METAR KBGM 161018Z 30009KT 10SM BKN010 OVC015 06/04 A3001 RMK AO2 T00560044 =
2017-10-16 05:53 METAR KBGM 160953Z 31006KT 10SM FEW012 BKN017 OVC033 06/04 A3001 RMK AO2 SLP160
                 T00560044 =
2017-10-16 05:37 METAR KBGM 160937Z AUTO 32009KT 10SM FEW012 SCT017 BKN031 06/04 A3000 RMK AO2
                 T00560039 =
2017-10-16 05:07 METAR KBGM 160907Z AUTO 31006KT 10SM BKN012 BKN026 OVC031 06/04 A2998 RMK AO2
                 T00610044 =
2017-10-16 04:53 METAR KBGM 160853Z AUTO 33011KT 10SM SCT012 BKN021 OVC029 06/04 A2998 RMK AO2
                 SLP149 60000 T00610044 51019 =
2017-10-16 04:39 METAR KBGM 160839Z AUTO 32008G17KT 10SM FEW013 BKN017 OVC023 06/04 A2997 RMK AO2
                 T00610044 =
2017-10-16 04:02 METAR KBGM 160802Z AUTO 32008KT 10SM BKN012 BKN021 OVC040 07/06 A2997 RMK AO2
                 T00670056 =
2017-10-16 03:53 METAR KBGM 160753Z AUTO 32007KT 10SM FEW007 BKN021 OVC042 07/06 A2996 RMK AO2
                 RAB00E15 SLP144 P0000 T00670056 =
2017-10-16 03:39 METAR KBGM 160739Z AUTO 32009G16KT 10SM SCT008 BKN020 OVC027 07/06 A2996 RMK AO2
                 RAB00E15 P0000 T00670056 =
2017-10-16 03:22 METAR KBGM 160722Z AUTO 33011G19KT 7SM SCT008 BKN012 OVC021 07/06 A2995 RMK AO2
                 RAB00E15 P0000 T00670061 =
2017-10-16 03:14 METAR KBGM 160714Z AUTO 34013G19KT 10SM -RA SCT010 BKN015 OVC026 07/06 A2995 RMK
                 AO2 RAB00 P0000 T00720056 =
2017-10-16 03:04 METAR KBGM 160704Z AUTO 33011G20KT 7SM -RA BKN012 OVC017 08/06 A2995 RMK AO2
                 RAB00 P0000 T00780061 =
2017-10-16 02:53 METAR KBGM 160653Z AUTO 32011G20KT 10SM FEW012 BKN017 OVC025 08/06 A2994 RMK AO2
                 RAB39E49 SLP137 P0000 T00830061 =
2017-10-16 01:53 METAR KBGM 160553Z AUTO 32011G18KT 10SM BKN029 OVC041 10/07 A2992 RMK AO2 SLP127
                 60040 T01000072 10183 20100 53025 =
2017-10-16 01:04 METAR KBGM 160504Z AUTO 32007KT 10SM SCT023 11/08 A2990 RMK AO2 T01060083 =
2017-10-16 00:53 METAR KBGM 160453Z AUTO 32009G15KT 10SM BKN022 BKN047 11/08 A2989 RMK AO2 RAE11
                 SLP119 P0000 T01110083 402330111 =
2017-10-15 23:53 METAR KBGM 160353Z 33010G19KT 10SM -RA SCT016 BKN024 OVC038 12/11 A2986 RMK AO2
                 RAE09B27 SLP108 P0001 T01220106 =
2017-10-15 23:45 METAR KBGM 160345Z 30010KT 10SM -RA FEW018 BKN026 OVC100 13/11 A2986 RMK AO2
                 RAE09B27 P0000 T01330111 =
2017-10-15 22:53 METAR KBGM 160253Z 27008KT 10SM -RA SCT035 OVC100 14/11 A2984 RMK AO2 RAE07B29
                 SLP100 P0000 60039 T01390111 51038 =
2017-10-15 21:53 METAR KBGM 160153Z 28011G19KT 10SM -RA BKN038 OVC050 14/12 A2983 RMK AO2 SLP100
                 P0006 T01440122 =
2017-10-15 21:39 METAR KBGM 160139Z 30011G20KT 10SM -RA FEW012 SCT029 OVC038 14/13 A2982 RMK AO2
                 P0006 T01440128 =
2017-10-15 21:10 METAR KBGM 160110Z 30008G16KT 6SM -RA BR SCT006 BKN021 OVC026 15/14 A2980 RMK
                 AO2 P0006 T01500144 =
2017-10-15 21:00 METAR KBGM 160100Z 31009G17KT 3SM RA BR SCT006 BKN010 OVC020 15/14 A2980 RMK AO2
                 P0004 T01500144 =
2017-10-15 20:53 METAR KBGM 160053Z 31010G21KT 2 1/2SM +RA BR BKN006 BKN010 OVC016 15/14 A2979
                 RMK AO2 WSHFT 0025 RAB16 SLP085 P0033 T01500144 =
2017-10-15 20:40 METAR KBGM 160040Z 32015G22KT 2SM +RA BR SCT007 BKN018 OVC065 16/15 A2977 RMK
                 AO2 WSHFT 0025 RAB16 P0026 T01560150 =
2017-10-15 20:38 METAR KBGM 160038Z 32015G22KT 1 1/4SM +RA BR SCT007 BKN015 OVC065 16/16 A2977
                 RMK AO2 RAB16 P0026 T01610156 =
2017-10-15 20:29 METAR KBGM 160029Z 31015G24KT 1 3/4SM RA BR FEW007 BKN048 OVC065 18/16 A2977 RMK
                 AO2 RAB16 PRESRR P0000 T01780156 =

Support USWX by starting your Amazon purchase here.